sensor_id;sensor_type;location;lat;lon;timestamp;P1;durP1;ratioP1;P2;durP2;ratioP2
11427;SDS011;5770;44.504;11.346;2023-09-12T00:01:03;7.47;;;6.13;;
11427;SDS011;5770;44.504;11.346;2023-09-12T00:03:31;6.38;;;5.68;;
11427;SDS011;5770;44.504;11.346;2023-09-12T00:06:00;8.35;;;5.78;;
11427;SDS011;5770;44.504;11.346;2023-09-12T00:08:28;6.95;;;6.03;;
11427;SDS011;5770;44.504;11.346;2023-09-12T00:11:02;6.72;;;6.05;;
11427;SDS011;5770;44.504;11.346;2023-09-12T00:13:30;5.88;;;5.38;;
11427;SDS011;5770;44.504;11.346;2023-09-12T00:15:57;6.82;;;6.13;;
11427;SDS011;5770;44.504;11.346;2023-09-12T00:18:26;7.40;;;6.22;;
11427;SDS011;5770;44.504;11.346;2023-09-12T00:20:53;7.18;;;6.38;;
11427;SDS011;5770;44.504;11.346;2023-09-12T00:23:20;6.97;;;6.15;;
11427;SDS011;5770;44.504;11.346;2023-09-12T00:25:50;7.28;;;6.28;;
11427;SDS011;5770;44.504;11.346;2023-09-12T00:28:17;6.53;;;5.93;;
11427;SDS011;5770;44.504;11.346;2023-09-12T00:30:45;6.35;;;5.75;;
11427;SDS011;5770;44.504;11.346;2023-09-12T00:33:12;6.78;;;5.65;;
11427;SDS011;5770;44.504;11.346;2023-09-12T00:35:39;7.03;;;6.30;;
11427;SDS011;5770;44.504;11.346;2023-09-12T00:38:08;6.07;;;5.57;;
11427;SDS011;5770;44.504;11.346;2023-09-12T00:40:35;10.82;;;6.13;;
11427;SDS011;5770;44.504;11.346;2023-09-12T00:43:04;6.03;;;5.50;;
11427;SDS011;5770;44.504;11.346;2023-09-12T00:45:31;6.68;;;5.93;;
11427;SDS011;5770;44.504;11.346;2023-09-12T00:47:58;6.53;;;5.88;;
11427;SDS011;5770;44.504;11.346;2023-09-12T00:50:27;7.45;;;5.93;;
11427;SDS011;5770;44.504;11.346;2023-09-12T00:52:55;6.05;;;5.47;;
11427;SDS011;5770;44.504;11.346;2023-09-12T00:55:22;6.28;;;5.68;;
11427;SDS011;5770;44.504;11.346;2023-09-12T00:57:50;6.85;;;5.85;;
11427;SDS011;5770;44.504;11.346;2023-09-12T01:00:19;8.65;;;6.15;;
11427;SDS011;5770;44.504;11.346;2023-09-12T01:02:47;6.43;;;5.50;;
11427;SDS011;5770;44.504;11.346;2023-09-12T01:05:14;6.32;;;5.70;;
11427;SDS011;5770;44.504;11.346;2023-09-12T01:07:42;6.25;;;5.72;;
11427;SDS011;5770;44.504;11.346;2023-09-12T01:10:10;6.45;;;5.68;;
11427;SDS011;5770;44.504;11.346;2023-09-12T01:12:37;5.65;;;5.15;;
11427;SDS011;5770;44.504;11.346;2023-09-12T01:15:04;6.95;;;6.25;;
11427;SDS011;5770;44.504;11.346;2023-09-12T01:17:40;6.28;;;5.78;;
11427;SDS011;5770;44.504;11.346;2023-09-12T01:20:07;6.43;;;5.82;;
11427;SDS011;5770;44.504;11.346;2023-09-12T01:22:40;6.43;;;5.50;;
11427;SDS011;5770;44.504;11.346;2023-09-12T01:25:25;5.85;;;5.15;;
11427;SDS011;5770;44.504;11.346;2023-09-12T01:28:10;9.07;;;6.10;;
11427;SDS011;5770;44.504;11.346;2023-09-12T01:30:39;7.63;;;5.32;;
11427;SDS011;5770;44.504;11.346;2023-09-12T01:33:11;7.13;;;5.22;;
11427;SDS011;5770;44.504;11.346;2023-09-12T01:35:40;6.38;;;5.55;;
11427;SDS011;5770;44.504;11.346;2023-09-12T01:38:08;6.63;;;5.43;;
11427;SDS011;5770;44.504;11.346;2023-09-12T01:40:38;5.97;;;5.38;;
11427;SDS011;5770;44.504;11.346;2023-09-12T01:43:05;7.38;;;6.13;;
11427;SDS011;5770;44.504;11.346;2023-09-12T01:45:34;6.47;;;5.53;;
11427;SDS011;5770;44.504;11.346;2023-09-12T01:48:03;7.93;;;5.53;;
11427;SDS011;5770;44.504;11.346;2023-09-12T01:50:31;6.25;;;5.68;;
11427;SDS011;5770;44.504;11.346;2023-09-12T01:52:58;5.57;;;5.03;;
11427;SDS011;5770;44.504;11.346;2023-09-12T01:55:26;7.30;;;5.32;;
11427;SDS011;5770;44.504;11.346;2023-09-12T01:57:53;6.40;;;5.55;;
11427;SDS011;5770;44.504;11.346;2023-09-12T02:00:24;7.53;;;5.82;;
11427;SDS011;5770;44.504;11.346;2023-09-12T02:02:53;6.15;;;5.60;;
11427;SDS011;5770;44.504;11.346;2023-09-12T02:05:20;5.57;;;5.07;;
11427;SDS011;5770;44.504;11.346;2023-09-12T02:07:48;6.93;;;5.78;;
11427;SDS011;5770;44.504;11.346;2023-09-12T02:10:15;6.20;;;5.50;;
11427;SDS011;5770;44.504;11.346;2023-09-12T02:12:42;8.95;;;5.40;;
11427;SDS011;5770;44.504;11.346;2023-09-12T02:15:09;9.50;;;5.50;;
11427;SDS011;5770;44.504;11.346;2023-09-12T02:17:37;6.07;;;5.47;;
11427;SDS011;5770;44.504;11.346;2023-09-12T02:20:07;7.68;;;5.18;;
11427;SDS011;5770;44.504;11.346;2023-09-12T02:22:35;6.40;;;5.10;;
11427;SDS011;5770;44.504;11.346;2023-09-12T02:25:02;8.05;;;5.45;;
11427;SDS011;5770;44.504;11.346;2023-09-12T02:27:30;6.55;;;5.95;;
11427;SDS011;5770;44.504;11.346;2023-09-12T02:29:57;6.78;;;5.55;;
11427;SDS011;5770;44.504;11.346;2023-09-12T02:32:25;6.45;;;5.40;;
11427;SDS011;5770;44.504;11.346;2023-09-12T02:34:52;7.57;;;5.47;;
11427;SDS011;5770;44.504;11.346;2023-09-12T02:37:20;5.68;;;5.13;;
11427;SDS011;5770;44.504;11.346;2023-09-12T02:39:47;8.15;;;5.45;;
11427;SDS011;5770;44.504;11.346;2023-09-12T02:42:14;6.03;;;5.53;;
11427;SDS011;5770;44.504;11.346;2023-09-12T02:44:42;6.97;;;5.60;;
11427;SDS011;5770;44.504;11.346;2023-09-12T02:47:09;5.75;;;5.25;;
11427;SDS011;5770;44.504;11.346;2023-09-12T02:49:36;5.80;;;5.30;;
11427;SDS011;5770;44.504;11.346;2023-09-12T02:52:03;5.93;;;5.43;;
11427;SDS011;5770;44.504;11.346;2023-09-12T02:54:32;6.45;;;5.60;;
11427;SDS011;5770;44.504;11.346;2023-09-12T02:56:59;7.15;;;5.40;;
11427;SDS011;5770;44.504;11.346;2023-09-12T02:59:26;5.90;;;5.40;;
11427;SDS011;5770;44.504;11.346;2023-09-12T03:01:53;6.60;;;5.32;;
11427;SDS011;5770;44.504;11.346;2023-09-12T03:04:20;7.22;;;6.20;;
11427;SDS011;5770;44.504;11.346;2023-09-12T03:06:47;7.20;;;5.70;;
11427;SDS011;5770;44.504;11.346;2023-09-12T03:09:14;6.10;;;4.95;;
11427;SDS011;5770;44.504;11.346;2023-09-12T03:11:45;7.97;;;5.82;;
11427;SDS011;5770;44.504;11.346;2023-09-12T03:14:12;6.03;;;5.53;;
11427;SDS011;5770;44.504;11.346;2023-09-12T03:16:39;8.90;;;5.47;;
11427;SDS011;5770;44.504;11.346;2023-09-12T03:19:06;9.07;;;5.35;;
11427;SDS011;5770;44.504;11.346;2023-09-12T03:21:34;6.20;;;5.55;;
11427;SDS011;5770;44.504;11.346;2023-09-12T03:24:01;5.93;;;5.20;;
11427;SDS011;5770;44.504;11.346;2023-09-12T03:26:28;6.43;;;5.60;;
11427;SDS011;5770;44.504;11.346;2023-09-12T03:28:57;6.05;;;5.38;;
11427;SDS011;5770;44.504;11.346;2023-09-12T03:31:24;5.63;;;5.13;;
11427;SDS011;5770;44.504;11.346;2023-09-12T03:33:51;5.78;;;5.15;;
11427;SDS011;5770;44.504;11.346;2023-09-12T03:36:18;7.13;;;5.57;;
11427;SDS011;5770;44.504;11.346;2023-09-12T03:38:45;5.90;;;5.25;;
11427;SDS011;5770;44.504;11.346;2023-09-12T03:41:12;5.60;;;5.10;;
11427;SDS011;5770;44.504;11.346;2023-09-12T03:43:39;6.22;;;5.65;;
11427;SDS011;5770;44.504;11.346;2023-09-12T03:46:08;5.97;;;5.43;;
11427;SDS011;5770;44.504;11.346;2023-09-12T03:48:35;6.30;;;5.70;;
11427;SDS011;5770;44.504;11.346;2023-09-12T03:51:02;5.97;;;5.22;;
11427;SDS011;5770;44.504;11.346;2023-09-12T03:53:30;5.63;;;5.13;;
11427;SDS011;5770;44.504;11.346;2023-09-12T03:55:57;7.22;;;5.35;;
11427;SDS011;5770;44.504;11.346;2023-09-12T03:58:25;7.63;;;5.35;;
11427;SDS011;5770;44.504;11.346;2023-09-12T04:00:52;6.13;;;5.35;;
11427;SDS011;5770;44.504;11.346;2023-09-12T04:03:21;9.95;;;5.43;;
11427;SDS011;5770;44.504;11.346;2023-09-12T04:05:48;7.57;;;5.30;;
11427;SDS011;5770;44.504;11.346;2023-09-12T04:08:15;6.13;;;5.40;;
11427;SDS011;5770;44.504;11.346;2023-09-12T04:10:42;7.38;;;5.68;;
11427;SDS011;5770;44.504;11.346;2023-09-12T04:13:10;5.80;;;5.20;;
11427;SDS011;5770;44.504;11.346;2023-09-12T04:15:37;5.85;;;5.35;;
11427;SDS011;5770;44.504;11.346;2023-09-12T04:18:04;6.32;;;5.20;;
11427;SDS011;5770;44.504;11.346;2023-09-12T04:20:33;6.78;;;5.40;;
11427;SDS011;5770;44.504;11.346;2023-09-12T04:23:00;9.23;;;5.18;;
11427;SDS011;5770;44.504;11.346;2023-09-12T04:25:28;6.45;;;5.85;;
11427;SDS011;5770;44.504;11.346;2023-09-12T04:27:55;6.70;;;5.18;;
11427;SDS011;5770;44.504;11.346;2023-09-12T04:30:22;6.10;;;5.50;;
11427;SDS011;5770;44.504;11.346;2023-09-12T04:32:52;7.32;;;5.28;;
11427;SDS011;5770;44.504;11.346;2023-09-12T04:35:19;6.20;;;5.53;;
11427;SDS011;5770;44.504;11.346;2023-09-12T04:37:47;6.72;;;5.30;;
11427;SDS011;5770;44.504;11.346;2023-09-12T04:40:15;5.85;;;5.22;;
11427;SDS011;5770;44.504;11.346;2023-09-12T04:42:42;5.60;;;5.03;;
11427;SDS011;5770;44.504;11.346;2023-09-12T04:45:09;6.03;;;5.47;;
11427;SDS011;5770;44.504;11.346;2023-09-12T04:47:36;5.70;;;4.68;;
11427;SDS011;5770;44.504;11.346;2023-09-12T04:50:04;6.35;;;5.22;;
11427;SDS011;5770;44.504;11.346;2023-09-12T04:52:31;9.98;;;5.72;;
11427;SDS011;5770;44.504;11.346;2023-09-12T04:54:59;6.05;;;5.20;;
11427;SDS011;5770;44.504;11.346;2023-09-12T04:57:27;5.13;;;4.50;;
11427;SDS011;5770;44.504;11.346;2023-09-12T04:59:55;6.72;;;5.22;;
11427;SDS011;5770;44.504;11.346;2023-09-12T05:02:23;6.32;;;5.57;;
11427;SDS011;5770;44.504;11.346;2023-09-12T05:04:50;5.47;;;5.00;;
11427;SDS011;5770;44.504;11.346;2023-09-12T05:07:18;6.97;;;5.45;;
11427;SDS011;5770;44.504;11.346;2023-09-12T05:09:45;9.25;;;5.43;;
11427;SDS011;5770;44.504;11.346;2023-09-12T05:12:13;5.35;;;4.85;;
11427;SDS011;5770;44.504;11.346;2023-09-12T05:14:41;5.55;;;4.95;;
11427;SDS011;5770;44.504;11.346;2023-09-12T05:17:08;7.97;;;5.50;;
11427;SDS011;5770;44.504;11.346;2023-09-12T05:19:35;6.63;;;5.30;;
11427;SDS011;5770;44.504;11.346;2023-09-12T05:22:02;7.88;;;5.60;;
11427;SDS011;5770;44.504;11.346;2023-09-12T05:24:29;5.32;;;4.80;;
11427;SDS011;5770;44.504;11.346;2023-09-12T05:26:56;6.45;;;5.15;;
11427;SDS011;5770;44.504;11.346;2023-09-12T05:29:25;6.00;;;5.07;;
11427;SDS011;5770;44.504;11.346;2023-09-12T05:31:52;5.53;;;5.03;;
11427;SDS011;5770;44.504;11.346;2023-09-12T05:34:19;6.35;;;5.55;;
11427;SDS011;5770;44.504;11.346;2023-09-12T05:36:46;5.97;;;5.18;;
11427;SDS011;5770;44.504;11.346;2023-09-12T05:39:13;9.55;;;5.68;;
11427;SDS011;5770;44.504;11.346;2023-09-12T05:41:40;7.07;;;5.53;;
11427;SDS011;5770;44.504;11.346;2023-09-12T05:44:07;7.75;;;5.50;;
11427;SDS011;5770;44.504;11.346;2023-09-12T05:46:36;8.75;;;5.63;;
11427;SDS011;5770;44.504;11.346;2023-09-12T05:49:03;6.65;;;5.40;;
11427;SDS011;5770;44.504;11.346;2023-09-12T05:51:30;7.57;;;5.07;;
11427;SDS011;5770;44.504;11.346;2023-09-12T05:53:57;7.07;;;5.75;;
11427;SDS011;5770;44.504;11.346;2023-09-12T05:56:26;5.78;;;5.22;;
11427;SDS011;5770;44.504;11.346;2023-09-12T05:58:53;6.03;;;5.38;;
11427;SDS011;5770;44.504;11.346;2023-09-12T06:01:20;6.43;;;5.18;;
11427;SDS011;5770;44.504;11.346;2023-09-12T06:03:48;8.60;;;5.68;;
11427;SDS011;5770;44.504;11.346;2023-09-12T06:06:16;18.02;;;5.55;;
11427;SDS011;5770;44.504;11.346;2023-09-12T06:08:43;7.13;;;5.43;;
11427;SDS011;5770;44.504;11.346;2023-09-12T06:11:10;5.75;;;5.22;;
11427;SDS011;5770;44.504;11.346;2023-09-12T06:13:37;5.80;;;5.28;;
11427;SDS011;5770;44.504;11.346;2023-09-12T06:16:04;9.68;;;5.50;;
11427;SDS011;5770;44.504;11.346;2023-09-12T06:18:31;6.38;;;4.88;;
11427;SDS011;5770;44.504;11.346;2023-09-12T06:21:01;7.00;;;4.82;;
11427;SDS011;5770;44.504;11.346;2023-09-12T06:23:29;7.25;;;5.35;;
11427;SDS011;5770;44.504;11.346;2023-09-12T06:25:56;6.28;;;4.93;;
11427;SDS011;5770;44.504;11.346;2023-09-12T06:28:27;9.10;;;5.25;;
11427;SDS011;5770;44.504;11.346;2023-09-12T06:30:55;9.20;;;5.90;;
11427;SDS011;5770;44.504;11.346;2023-09-12T06:33:22;13.38;;;5.40;;
11427;SDS011;5770;44.504;11.346;2023-09-12T06:35:50;15.77;;;5.78;;
11427;SDS011;5770;44.504;11.346;2023-09-12T06:38:19;6.00;;;5.40;;
11427;SDS011;5770;44.504;11.346;2023-09-12T06:40:47;7.93;;;5.45;;
11427;SDS011;5770;44.504;11.346;2023-09-12T06:43:15;8.80;;;5.30;;
11427;SDS011;5770;44.504;11.346;2023-09-12T06:45:42;8.38;;;5.68;;
11427;SDS011;5770;44.504;11.346;2023-09-12T06:48:09;8.80;;;5.30;;
11427;SDS011;5770;44.504;11.346;2023-09-12T06:50:37;9.23;;;5.45;;
11427;SDS011;5770;44.504;11.346;2023-09-12T06:53:04;7.30;;;5.25;;
11427;SDS011;5770;44.504;11.346;2023-09-12T06:55:33;6.43;;;5.55;;
11427;SDS011;5770;44.504;11.346;2023-09-12T06:58:00;6.03;;;5.30;;
11427;SDS011;5770;44.504;11.346;2023-09-12T07:00:28;5.75;;;4.95;;
11427;SDS011;5770;44.504;11.346;2023-09-12T07:02:56;6.07;;;4.95;;
11427;SDS011;5770;44.504;11.346;2023-09-12T07:05:23;5.80;;;5.15;;
11427;SDS011;5770;44.504;11.346;2023-09-12T07:07:50;7.10;;;5.00;;
11427;SDS011;5770;44.504;11.346;2023-09-12T07:10:18;6.82;;;5.10;;
11427;SDS011;5770;44.504;11.346;2023-09-12T07:12:46;6.50;;;4.75;;
11427;SDS011;5770;44.504;11.346;2023-09-12T07:15:13;5.45;;;4.82;;
11427;SDS011;5770;44.504;11.346;2023-09-12T07:17:40;7.35;;;4.72;;
11427;SDS011;5770;44.504;11.346;2023-09-12T07:20:08;7.15;;;5.00;;
11427;SDS011;5770;44.504;11.346;2023-09-12T07:22:36;12.85;;;5.72;;
11427;SDS011;5770;44.504;11.346;2023-09-12T07:25:04;8.20;;;4.68;;
11427;SDS011;5770;44.504;11.346;2023-09-12T07:27:34;5.93;;;4.72;;
11427;SDS011;5770;44.504;11.346;2023-09-12T07:30:03;6.85;;;5.30;;
11427;SDS011;5770;44.504;11.346;2023-09-12T07:32:30;7.25;;;5.03;;
11427;SDS011;5770;44.504;11.346;2023-09-12T07:34:57;6.50;;;5.00;;
11427;SDS011;5770;44.504;11.346;2023-09-12T07:37:24;6.68;;;4.60;;
11427;SDS011;5770;44.504;11.346;2023-09-12T07:39:51;12.80;;;5.70;;
11427;SDS011;5770;44.504;11.346;2023-09-12T07:42:20;8.40;;;5.45;;
11427;SDS011;5770;44.504;11.346;2023-09-12T07:44:48;11.40;;;5.70;;
11427;SDS011;5770;44.504;11.346;2023-09-12T07:47:17;13.95;;;5.30;;
11427;SDS011;5770;44.504;11.346;2023-09-12T07:49:44;9.43;;;5.38;;
11427;SDS011;5770;44.504;11.346;2023-09-12T07:52:11;10.60;;;5.60;;
11427;SDS011;5770;44.504;11.346;2023-09-12T07:54:38;9.82;;;5.63;;
11427;SDS011;5770;44.504;11.346;2023-09-12T07:57:05;15.48;;;6.15;;
11427;SDS011;5770;44.504;11.346;2023-09-12T07:59:33;21.60;;;7.07;;
11427;SDS011;5770;44.504;11.346;2023-09-12T08:02:01;16.20;;;6.57;;
11427;SDS011;5770;44.504;11.346;2023-09-12T08:04:29;13.73;;;6.55;;
11427;SDS011;5770;44.504;11.346;2023-09-12T08:06:56;11.20;;;6.00;;
11427;SDS011;5770;44.504;11.346;2023-09-12T08:09:23;12.27;;;5.50;;
11427;SDS011;5770;44.504;11.346;2023-09-12T08:11:51;22.42;;;7.45;;
11427;SDS011;5770;44.504;11.346;2023-09-12T08:14:18;22.17;;;7.03;;
11427;SDS011;5770;44.504;11.346;2023-09-12T08:16:46;16.80;;;5.90;;
11427;SDS011;5770;44.504;11.346;2023-09-12T08:19:13;8.77;;;5.45;;
11427;SDS011;5770;44.504;11.346;2023-09-12T08:21:44;9.68;;;5.88;;
11427;SDS011;5770;44.504;11.346;2023-09-12T08:24:13;9.38;;;5.38;;
11427;SDS011;5770;44.504;11.346;2023-09-12T08:26:40;7.38;;;5.65;;
11427;SDS011;5770;44.504;11.346;2023-09-12T08:29:07;10.95;;;5.40;;
11427;SDS011;5770;44.504;11.346;2023-09-12T08:31:34;9.82;;;5.28;;
11427;SDS011;5770;44.504;11.346;2023-09-12T08:34:02;10.13;;;5.15;;
11427;SDS011;5770;44.504;11.346;2023-09-12T08:36:29;13.75;;;5.45;;
11427;SDS011;5770;44.504;11.346;2023-09-12T08:38:58;8.80;;;5.90;;
11427;SDS011;5770;44.504;11.346;2023-09-12T08:41:26;10.73;;;5.47;;
11427;SDS011;5770;44.504;11.346;2023-09-12T08:43:53;6.85;;;6.15;;
11427;SDS011;5770;44.504;11.346;2023-09-12T08:46:21;8.52;;;6.20;;
11427;SDS011;5770;44.504;11.346;2023-09-12T08:48:49;20.52;;;6.53;;
11427;SDS011;5770;44.504;11.346;2023-09-12T08:51:16;14.27;;;6.43;;
11427;SDS011;5770;44.504;11.346;2023-09-12T08:53:44;7.85;;;5.45;;
11427;SDS011;5770;44.504;11.346;2023-09-12T08:56:12;8.40;;;5.90;;
11427;SDS011;5770;44.504;11.346;2023-09-12T08:58:39;10.23;;;6.25;;
11427;SDS011;5770;44.504;11.346;2023-09-12T09:01:07;12.50;;;6.15;;
11427;SDS011;5770;44.504;11.346;2023-09-12T09:03:35;10.27;;;6.40;;
11427;SDS011;5770;44.504;11.346;2023-09-12T09:06:03;8.70;;;5.82;;
11427;SDS011;5770;44.504;11.346;2023-09-12T09:08:30;8.98;;;6.55;;
11427;SDS011;5770;44.504;11.346;2023-09-12T09:10:58;6.13;;;5.53;;
11427;SDS011;5770;44.504;11.346;2023-09-12T09:13:29;25.70;;;6.60;;
11427;SDS011;5770;44.504;11.346;2023-09-12T09:16:09;12.70;;;7.05;;
11427;SDS011;5770;44.504;11.346;2023-09-12T09:18:49;13.50;;;6.53;;
11427;SDS011;5770;44.504;11.346;2023-09-12T09:21:16;10.05;;;6.15;;
11427;SDS011;5770;44.504;11.346;2023-09-12T09:23:44;10.80;;;7.10;;
11427;SDS011;5770;44.504;11.346;2023-09-12T09:26:12;10.07;;;6.60;;
11427;SDS011;5770;44.504;11.346;2023-09-12T09:28:40;10.02;;;6.18;;
11427;SDS011;5770;44.504;11.346;2023-09-12T09:31:09;7.65;;;6.05;;
11427;SDS011;5770;44.504;11.346;2023-09-12T09:33:40;12.77;;;6.32;;
11427;SDS011;5770;44.504;11.346;2023-09-12T09:36:17;13.15;;;6.47;;
11427;SDS011;5770;44.504;11.346;2023-09-12T09:38:44;7.00;;;6.30;;
11427;SDS011;5770;44.504;11.346;2023-09-12T09:41:12;6.90;;;6.30;;
11427;SDS011;5770;44.504;11.346;2023-09-12T09:43:40;8.05;;;6.78;;
11427;SDS011;5770;44.504;11.346;2023-09-12T09:46:14;11.00;;;6.50;;
11427;SDS011;5770;44.504;11.346;2023-09-12T09:48:42;12.52;;;6.43;;
11427;SDS011;5770;44.504;11.346;2023-09-12T09:51:16;7.90;;;6.15;;
11427;SDS011;5770;44.504;11.346;2023-09-12T09:53:43;9.65;;;6.40;;
11427;SDS011;5770;44.504;11.346;2023-09-12T09:56:11;11.50;;;6.28;;
11427;SDS011;5770;44.504;11.346;2023-09-12T09:58:43;10.23;;;5.97;;
11427;SDS011;5770;44.504;11.346;2023-09-12T10:01:14;8.10;;;6.32;;
11427;SDS011;5770;44.504;11.346;2023-09-12T10:03:44;14.75;;;6.90;;
11427;SDS011;5770;44.504;11.346;2023-09-12T10:06:14;14.93;;;8.02;;
11427;SDS011;5770;44.504;11.346;2023-09-12T10:08:42;10.15;;;7.93;;
11427;SDS011;5770;44.504;11.346;2023-09-12T10:11:10;16.27;;;7.32;;
11427;SDS011;5770;44.504;11.346;2023-09-12T10:13:37;13.00;;;7.20;;
11427;SDS011;5770;44.504;11.346;2023-09-12T10:16:08;21.38;;;8.20;;
11427;SDS011;5770;44.504;11.346;2023-09-12T10:18:43;15.43;;;7.50;;
11427;SDS011;5770;44.504;11.346;2023-09-12T10:21:14;12.60;;;7.22;;
11427;SDS011;5770;44.504;11.346;2023-09-12T10:23:46;12.80;;;7.03;;
11427;SDS011;5770;44.504;11.346;2023-09-12T10:26:16;12.57;;;6.80;;
11427;SDS011;5770;44.504;11.346;2023-09-12T10:28:43;16.20;;;6.57;;
11427;SDS011;5770;44.504;11.346;2023-09-12T10:31:12;8.95;;;6.95;;
11427;SDS011;5770;44.504;11.346;2023-09-12T10:33:40;10.55;;;6.65;;
11427;SDS011;5770;44.504;11.346;2023-09-12T10:36:08;12.25;;;6.57;;
11427;SDS011;5770;44.504;11.346;2023-09-12T10:38:36;12.73;;;6.55;;
11427;SDS011;5770;44.504;11.346;2023-09-12T10:41:08;12.90;;;7.95;;
11427;SDS011;5770;44.504;11.346;2023-09-12T10:43:36;15.68;;;7.07;;
11427;SDS011;5770;44.504;11.346;2023-09-12T10:46:04;11.20;;;6.72;;
11427;SDS011;5770;44.504;11.346;2023-09-12T10:48:33;8.27;;;6.57;;
11427;SDS011;5770;44.504;11.346;2023-09-12T10:51:02;9.27;;;7.13;;
11427;SDS011;5770;44.504;11.346;2023-09-12T10:53:30;13.18;;;6.55;;
11427;SDS011;5770;44.504;11.346;2023-09-12T10:55:58;11.60;;;6.93;;
11427;SDS011;5770;44.504;11.346;2023-09-12T10:58:26;10.05;;;6.63;;
11427;SDS011;5770;44.504;11.346;2023-09-12T11:03:58;15.63;;;6.53;;
11427;SDS011;5770;44.504;11.346;2023-09-12T11:06:53;8.60;;;6.55;;
11427;SDS011;5770;44.504;11.346;2023-09-12T11:09:22;12.85;;;6.80;;
11427;SDS011;5770;44.504;11.346;2023-09-12T11:11:54;8.60;;;6.65;;
11427;SDS011;5770;44.504;11.346;2023-09-12T11:14:22;10.43;;;7.60;;
11427;SDS011;5770;44.504;11.346;2023-09-12T11:19:48;11.85;;;7.18;;
11427;SDS011;5770;44.504;11.346;2023-09-12T11:22:23;10.52;;;7.20;;
11427;SDS011;5770;44.504;11.346;2023-09-12T11:24:51;14.70;;;7.45;;
11427;SDS011;5770;44.504;11.346;2023-09-12T11:27:20;10.63;;;7.35;;
11427;SDS011;5770;44.504;11.346;2023-09-12T11:29:47;8.93;;;6.95;;
11427;SDS011;5770;44.504;11.346;2023-09-12T11:32:30;9.18;;;7.70;;
11427;SDS011;5770;44.504;11.346;2023-09-12T11:34:59;9.77;;;7.03;;
11427;SDS011;5770;44.504;11.346;2023-09-12T11:37:26;10.75;;;7.25;;
11427;SDS011;5770;44.504;11.346;2023-09-12T11:39:55;14.18;;;6.65;;
11427;SDS011;5770;44.504;11.346;2023-09-12T11:42:23;10.38;;;7.00;;
11427;SDS011;5770;44.504;11.346;2023-09-12T11:44:51;7.68;;;6.97;;
11427;SDS011;5770;44.504;11.346;2023-09-12T11:47:19;9.27;;;6.88;;
11427;SDS011;5770;44.504;11.346;2023-09-12T11:49:46;7.53;;;6.72;;
11427;SDS011;5770;44.504;11.346;2023-09-12T11:52:15;7.63;;;6.90;;
11427;SDS011;5770;44.504;11.346;2023-09-12T11:54:42;7.93;;;6.75;;
11427;SDS011;5770;44.504;11.346;2023-09-12T11:57:10;10.57;;;7.38;;
11427;SDS011;5770;44.504;11.346;2023-09-12T11:59:40;13.02;;;7.10;;
11427;SDS011;5770;44.504;11.346;2023-09-12T12:02:09;10.40;;;7.32;;
11427;SDS011;5770;44.504;11.346;2023-09-12T12:04:36;10.05;;;6.50;;
11427;SDS011;5770;44.504;11.346;2023-09-12T12:07:04;11.30;;;6.75;;
11427;SDS011;5770;44.504;11.346;2023-09-12T12:09:33;9.55;;;6.60;;
11427;SDS011;5770;44.504;11.346;2023-09-12T12:12:04;10.80;;;6.75;;
11427;SDS011;5770;44.504;11.346;2023-09-12T12:14:33;9.13;;;6.63;;
11427;SDS011;5770;44.504;11.346;2023-09-12T12:17:08;10.10;;;6.95;;
11427;SDS011;5770;44.504;11.346;2023-09-12T12:19:35;8.15;;;6.80;;
11427;SDS011;5770;44.504;11.346;2023-09-12T12:22:03;16.27;;;6.63;;
11427;SDS011;5770;44.504;11.346;2023-09-12T12:24:39;7.20;;;6.40;;
11427;SDS011;5770;44.504;11.346;2023-09-12T12:27:07;8.90;;;6.50;;
11427;SDS011;5770;44.504;11.346;2023-09-12T12:29:36;9.00;;;6.63;;
11427;SDS011;5770;44.504;11.346;2023-09-12T12:32:04;14.98;;;6.72;;
11427;SDS011;5770;44.504;11.346;2023-09-12T12:34:34;8.70;;;6.40;;
11427;SDS011;5770;44.504;11.346;2023-09-12T12:37:02;9.80;;;6.50;;
11427;SDS011;5770;44.504;11.346;2023-09-12T12:39:29;16.08;;;7.25;;
11427;SDS011;5770;44.504;11.346;2023-09-12T12:41:57;9.57;;;6.13;;
11427;SDS011;5770;44.504;11.346;2023-09-12T12:44:32;8.63;;;6.10;;
11427;SDS011;5770;44.504;11.346;2023-09-12T12:47:05;7.70;;;6.32;;
11427;SDS011;5770;44.504;11.346;2023-09-12T12:49:35;9.45;;;5.90;;
11427;SDS011;5770;44.504;11.346;2023-09-12T12:52:04;12.52;;;6.68;;
11427;SDS011;5770;44.504;11.346;2023-09-12T12:54:32;8.68;;;5.82;;
11427;SDS011;5770;44.504;11.346;2023-09-12T12:57:01;6.45;;;5.82;;
11427;SDS011;5770;44.504;11.346;2023-09-12T12:59:28;11.23;;;6.00;;
11427;SDS011;5770;44.504;11.346;2023-09-12T13:01:59;8.57;;;6.28;;
11427;SDS011;5770;44.504;11.346;2023-09-12T13:04:27;11.40;;;6.28;;
11427;SDS011;5770;44.504;11.346;2023-09-12T13:06:54;8.20;;;6.88;;
11427;SDS011;5770;44.504;11.346;2023-09-12T13:09:21;7.97;;;6.38;;
11427;SDS011;5770;44.504;11.346;2023-09-12T13:11:48;6.88;;;5.72;;
11427;SDS011;5770;44.504;11.346;2023-09-12T13:14:17;8.23;;;6.53;;
11427;SDS011;5770;44.504;11.346;2023-09-12T13:16:44;10.65;;;6.63;;
11427;SDS011;5770;44.504;11.346;2023-09-12T13:19:11;10.18;;;6.35;;
11427;SDS011;5770;44.504;11.346;2023-09-12T13:21:39;7.30;;;6.07;;
11427;SDS011;5770;44.504;11.346;2023-09-12T13:24:07;10.55;;;6.05;;
11427;SDS011;5770;44.504;11.346;2023-09-12T13:26:34;7.90;;;6.32;;
11427;SDS011;5770;44.504;11.346;2023-09-12T13:29:01;6.60;;;6.00;;
11427;SDS011;5770;44.504;11.346;2023-09-12T13:31:30;9.65;;;6.50;;
11427;SDS011;5770;44.504;11.346;2023-09-12T13:33:57;10.13;;;6.38;;
11427;SDS011;5770;44.504;11.346;2023-09-12T13:36:23;10.88;;;6.72;;
11427;SDS011;5770;44.504;11.346;2023-09-12T13:38:51;11.38;;;6.63;;
11427;SDS011;5770;44.504;11.346;2023-09-12T13:41:18;9.55;;;6.13;;
11427;SDS011;5770;44.504;11.346;2023-09-12T13:43:47;11.15;;;6.80;;
11427;SDS011;5770;44.504;11.346;2023-09-12T13:46:14;8.93;;;5.95;;
11427;SDS011;5770;44.504;11.346;2023-09-12T13:48:43;11.32;;;5.93;;
11427;SDS011;5770;44.504;11.346;2023-09-12T13:51:10;10.63;;;6.10;;
11427;SDS011;5770;44.504;11.346;2023-09-12T13:53:38;10.88;;;6.40;;
11427;SDS011;5770;44.504;11.346;2023-09-12T13:56:05;6.82;;;6.10;;
11427;SDS011;5770;44.504;11.346;2023-09-12T13:58:33;7.38;;;6.00;;
11427;SDS011;5770;44.504;11.346;2023-09-12T14:01:00;7.53;;;6.63;;
11427;SDS011;5770;44.504;11.346;2023-09-12T14:03:28;6.93;;;6.22;;
11427;SDS011;5770;44.504;11.346;2023-09-12T14:05:56;7.85;;;6.53;;
11427;SDS011;5770;44.504;11.346;2023-09-12T14:08:24;7.65;;;6.07;;
11427;SDS011;5770;44.504;11.346;2023-09-12T14:10:51;9.70;;;6.47;;
11427;SDS011;5770;44.504;11.346;2023-09-12T14:13:18;10.93;;;6.70;;
11427;SDS011;5770;44.504;11.346;2023-09-12T14:15:45;7.43;;;6.53;;
11427;SDS011;5770;44.504;11.346;2023-09-12T14:18:14;8.43;;;6.25;;
11427;SDS011;5770;44.504;11.346;2023-09-12T14:20:42;10.07;;;6.43;;
11427;SDS011;5770;44.504;11.346;2023-09-12T14:23:10;6.78;;;6.18;;
11427;SDS011;5770;44.504;11.346;2023-09-12T14:25:37;7.85;;;6.32;;
11427;SDS011;5770;44.504;11.346;2023-09-12T14:28:05;9.02;;;5.93;;
11427;SDS011;5770;44.504;11.346;2023-09-12T14:30:32;7.63;;;6.28;;
11427;SDS011;5770;44.504;11.346;2023-09-12T14:33:01;10.57;;;5.90;;
11427;SDS011;5770;44.504;11.346;2023-09-12T14:35:28;9.40;;;6.75;;
11427;SDS011;5770;44.504;11.346;2023-09-12T14:37:55;9.15;;;6.43;;
11427;SDS011;5770;44.504;11.346;2023-09-12T14:40:25;10.00;;;6.18;;
11427;SDS011;5770;44.504;11.346;2023-09-12T14:42:52;8.20;;;6.10;;
11427;SDS011;5770;44.504;11.346;2023-09-12T14:45:20;8.45;;;5.85;;
11427;SDS011;5770;44.504;11.346;2023-09-12T14:47:46;6.43;;;5.82;;
11427;SDS011;5770;44.504;11.346;2023-09-12T14:50:14;8.60;;;5.93;;
11427;SDS011;5770;44.504;11.346;2023-09-12T14:52:41;9.70;;;5.93;;
11427;SDS011;5770;44.504;11.346;2023-09-12T14:55:08;12.55;;;11.25;;